CheckWX is a tool to help pilots better visualize weather data.  It is not intended as a substitute for an official pre-flight weather briefing.

12:47:59 UTC

KPNS TAF
Pensacola International Airport
Pensacola, Florida, USA
KPNS 191129Z 1912/2012 10011G18KT P6SM OVC013 FM191500 13014KT P6SM VCSH BKN050 FM191800 12012KT P6SM BKN050 TEMPO 1918/1921 P6SM -TSRA BKN050CB FM200000 13007KT P6SM BKN250 FM200600 08008KT P6SM BKN100

Sep-19@
12:00 UTC

Sep-19 @ 12:00 UTC

Sep-19@
15:00 UTC

Sep-19 @ 15:00 UTC

KPNS 191129Z 1912/2012 10011G18KT P6SM OVC013
Wind
  • 100° at 11 KTS
  • {Gusting to 18 KTS
Cloud Levels
  • Overcast at 1,300' AGL

Sep-19@
15:00 UTC

Sep-19 @ 15:00 UTC

Sep-19@
18:00 UTC

Sep-19 @ 18:00 UTC

FM191500 13014KT P6SM VCSH BKN050

From

From Standard forecast or significant change

Wind
  • 130° at 14 KTS
Cloud Levels
  • Broken at 5,000' AGL

Sep-19@
18:00 UTC

Sep-19 @ 18:00 UTC

Sep-19@
21:00 UTC

Sep-19 @ 21:00 UTC

TEMPO 1918/1921 P6SM -TSRA BKN050CB

Temporary

Temporary Changes expected for less than half the time period

Conditions
Light Thunderstorm, Light Rain
Cloud Levels
  • Broken at 5,000' AGL

Sep-19@
18:00 UTC

Sep-19 @ 18:00 UTC

Sep-20@
00:00 UTC

Sep-20 @ 00:00 UTC

FM191800 12012KT P6SM BKN050

From

From Standard forecast or significant change

Wind
  • 120° at 12 KTS
Cloud Levels
  • Broken at 5,000' AGL

Sep-20@
00:00 UTC

Sep-20 @ 00:00 UTC

Sep-20@
06:00 UTC

Sep-20 @ 06:00 UTC

FM200000 13007KT P6SM BKN250

From

From Standard forecast or significant change

Wind
  • 130° at 7 KTS
Cloud Levels
  • Broken at 25,000' AGL

Sep-20@
06:00 UTC

Sep-20 @ 06:00 UTC

Sep-20@
12:00 UTC

Sep-20 @ 12:00 UTC

FM200600 08008KT P6SM BKN100

From

From Standard forecast or significant change

Wind
  • 080° at 8 KTS
Cloud Levels
  • Broken at 10,000' AGL